Time;durP1;ratioP1;P1;durP2;ratioP2;P2;SDS_P1;SDS_P2;PMS_P1;PMS_P2;Temp;Humidity;BMP_temperature;BMP_pressure;BME280_temperature;BME280_humidity;BME280_pressure;Samples;Min_cycle;Max_cycle;Signal;HPM_P1;HPM_P2
2021/05/14 00:00:47;;;;;;;3.33;3.02;;;;;;;21.96;69.20;99006.06;1736778;81;21027;-70
2021/05/14 00:03:14;;;;;;;3.10;2.80;;;;;;;21.95;69.19;99011.21;1727292;81;21752;-69
2021/05/14 00:05:41;;;;;;;3.20;2.90;;;;;;;21.94;69.17;99006.86;1735366;81;21095;-70
2021/05/14 00:08:08;;;;;;;3.55;3.25;;;;;;;21.91;69.16;99010.91;1741414;81;21079;-71
2021/05/14 00:10:38;;;;;;;3.60;2.95;;;;;;;21.91;69.19;99010.11;1729299;81;21590;-71
2021/05/14 00:13:06;;;;;;;2.83;2.62;;;;;;;21.89;69.24;99002.80;1726491;81;21543;-71
2021/05/14 00:15:32;;;;;;;3.15;2.85;;;;;;;21.87;69.26;99012.52;1726120;81;21066;-71
2021/05/14 00:17:59;;;;;;;3.50;3.20;;;;;;;21.85;69.35;99015.20;1734698;81;21047;-70
2021/05/14 00:20:25;;;;;;;2.90;2.70;;;;;;;21.84;69.35;99006.80;1744321;81;21598;-70
2021/05/14 00:22:52;;;;;;;3.33;3.02;;;;;;;21.83;69.36;99010.56;1731023;81;21121;-70
2021/05/14 00:25:18;;;;;;;3.30;3.00;;;;;;;21.81;69.38;99008.15;1727362;81;21632;-69
2021/05/14 00:27:44;;;;;;;3.05;2.72;;;;;;;21.80;69.41;99007.86;1733860;81;21092;-70
2021/05/14 00:30:12;;;;;;;3.35;3.05;;;;;;;21.79;69.48;99000.84;1732645;81;21065;-70
2021/05/14 00:32:39;;;;;;;3.00;2.80;;;;;;;21.78;69.49;99001.35;1736048;81;21109;-68
2021/05/14 00:35:07;;;;;;;3.22;2.90;;;;;;;21.77;69.55;98997.58;1733316;81;21060;-70
2021/05/14 00:37:34;;;;;;;2.80;2.60;;;;;;;21.75;69.58;98999.19;1736546;81;21077;-70
2021/05/14 00:40:00;;;;;;;2.62;2.42;;;;;;;21.74;69.61;99001.59;1744785;81;21150;-69
2021/05/14 00:42:27;;;;;;;2.77;2.42;;;;;;;21.79;69.63;98997.59;1730332;81;21067;-69
2021/05/14 00:44:53;;;;;;;2.80;2.50;;;;;;;21.89;69.29;98991.98;1743223;81;21708;-70
2021/05/14 00:47:20;;;;;;;3.45;3.08;;;;;;;21.88;69.30;98994.39;1741711;80;21107;-69
2021/05/14 00:49:47;;;;;;;2.62;2.42;;;;;;;21.87;69.33;98992.78;1745519;81;21028;-70
2021/05/14 00:52:16;;;;;;;2.85;2.60;;;;;;;21.85;69.37;98991.68;1742335;81;21588;-71
2021/05/14 00:54:43;;;;;;;2.70;2.50;;;;;;;21.83;69.48;98989.78;1731696;81;21712;-70
2021/05/14 00:57:10;;;;;;;2.80;2.60;;;;;;;21.82;69.49;98990.84;1735011;81;21060;-70
2021/05/14 00:59:37;;;;;;;4.67;2.95;;;;;;;21.82;69.58;98984.63;1727890;81;21590;-70
2021/05/14 01:02:05;;;;;;;2.75;2.47;;;;;;;21.80;69.67;98990.28;1712523;82;21062;-71
2021/05/14 01:04:33;;;;;;;3.22;2.92;;;;;;;21.79;69.74;98993.53;1705975;82;21072;-71
2021/05/14 01:07:00;;;;;;;2.60;2.40;;;;;;;21.78;69.83;98993.24;1716825;82;21054;-70
2021/05/14 01:09:26;;;;;;;2.90;2.70;;;;;;;21.78;69.88;98986.48;1708105;82;21437;-71
2021/05/14 01:11:53;;;;;;;3.25;2.98;;;;;;;21.77;69.96;98986.77;1704834;82;21140;-70
2021/05/14 01:14:19;;;;;;;2.92;2.70;;;;;;;21.76;70.03;98983.77;1692141;82;22149;-71
2021/05/14 01:16:46;;;;;;;3.02;2.50;;;;;;;21.75;70.09;98978.08;1703250;82;21060;-71
2021/05/14 01:19:14;;;;;;;3.10;2.80;;;;;;;21.74;70.09;98974.56;1704392;82;21599;-71
2021/05/14 01:21:41;;;;;;;3.37;2.58;;;;;;;21.73;70.20;98979.71;1717057;82;21093;-71
2021/05/14 01:24:08;;;;;;;3.27;2.98;;;;;;;21.72;70.19;98980.77;1708141;82;21600;-72
2021/05/14 01:26:34;;;;;;;2.87;2.62;;;;;;;21.73;70.18;98981.06;1703612;82;21149;-70
2021/05/14 01:29:03;;;;;;;2.83;2.52;;;;;;;21.71;70.31;98987.27;1718046;82;21635;-71
2021/05/14 01:31:30;;;;;;;3.33;2.47;;;;;;;21.70;70.33;98975.36;1698114;82;21076;-69
2021/05/14 01:33:57;;;;;;;2.60;2.40;;;;;;;21.76;70.25;98985.13;1697929;82;21083;-69
2021/05/14 01:36:23;;;;;;;2.83;2.60;;;;;;;21.85;69.83;98984.92;1715825;82;21615;-71
2021/05/14 01:38:50;;;;;;;2.58;2.37;;;;;;;21.84;69.75;98981.13;1707197;82;21107;-70
2021/05/14 01:41:16;;;;;;;3.02;2.80;;;;;;;21.84;69.70;98982.47;1705551;82;21028;-69
2021/05/14 01:43:43;;;;;;;2.62;2.42;;;;;;;21.81;69.71;98978.41;1686101;84;21071;-70
2021/05/14 01:46:09;;;;;;;3.42;2.80;;;;;;;21.80;69.72;98976.22;1663144;84;21175;-70
2021/05/14 01:48:36;;;;;;;3.25;2.92;;;;;;;21.79;69.75;98975.16;1678093;84;21653;-72
2021/05/14 01:51:19;;;;;;;3.05;2.85;;;;;;;21.78;69.70;98974.32;1676729;84;21091;-70
2021/05/14 01:53:45;;;;;;;2.70;2.50;;;;;;;21.78;69.69;98980.27;1706175;83;21094;-71
2021/05/14 01:56:11;;;;;;;2.95;2.75;;;;;;;21.76;69.67;98970.25;1706872;83;21075;-70
2021/05/14 01:58:38;;;;;;;3.10;2.80;;;;;;;21.73;69.79;98970.25;1712907;83;21162;-69
2021/05/14 02:01:04;;;;;;;2.70;2.50;;;;;;;21.71;69.79;98973.75;1713719;82;21648;-70
2021/05/14 02:03:31;;;;;;;2.45;2.25;;;;;;;21.71;69.77;98971.05;1709230;82;21276;-70
2021/05/14 02:05:57;;;;;;;3.15;2.85;;;;;;;21.70;69.80;98975.36;1704834;82;21109;-69
2021/05/14 02:08:24;;;;;;;2.92;2.62;;;;;;;21.68;69.87;98970.20;1717351;82;21614;-70
2021/05/14 02:10:50;;;;;;;2.65;2.45;;;;;;;21.68;69.89;98971.56;1715467;82;21049;-69
2021/05/14 02:13:16;;;;;;;2.45;2.25;;;;;;;21.67;69.87;98967.23;1721086;82;21074;-69
2021/05/14 02:15:43;;;;;;;2.67;2.47;;;;;;;21.65;69.84;98962.61;1712424;82;21121;-69
2021/05/14 02:18:10;;;;;;;2.65;2.42;;;;;;;21.64;69.85;98960.99;1720943;82;21784;-70
2021/05/14 02:20:36;;;;;;;2.47;2.27;;;;;;;21.63;69.90;98966.10;1724956;82;21090;-69
2021/05/14 02:23:03;;;;;;;2.70;2.50;;;;;;;21.61;69.87;98958.80;1721762;82;21056;-71
2021/05/14 02:25:29;;;;;;;2.72;2.52;;;;;;;21.61;69.89;98957.44;1728136;82;21288;-70
2021/05/14 02:27:56;;;;;;;2.62;2.42;;;;;;;21.59;69.85;98963.13;1724676;82;21094;-70
2021/05/14 02:30:24;;;;;;;2.60;2.40;;;;;;;21.59;69.87;98956.89;1714497;82;21589;-71
2021/05/14 02:32:51;;;;;;;2.50;2.30;;;;;;;21.63;69.82;98959.34;1718757;82;21613;-70
2021/05/14 02:35:17;;;;;;;3.15;2.30;;;;;;;21.71;69.40;98952.64;1734406;82;21111;-70
2021/05/14 02:37:44;;;;;;;2.90;2.70;;;;;;;21.70;69.40;98949.68;1713486;82;21095;-71
2021/05/14 02:40:12;;;;;;;2.62;2.40;;;;;;;21.68;69.35;98949.13;1720105;82;21593;-71
2021/05/14 02:42:38;;;;;;;2.92;2.40;;;;;;;21.67;69.33;98948.32;1726297;82;21036;-71
2021/05/14 02:45:06;;;;;;;2.62;2.42;;;;;;;21.65;69.31;98943.69;1730964;80;21054;-68
2021/05/14 02:47:33;;;;;;;2.70;2.50;;;;;;;21.65;69.32;98941.53;1728665;80;21121;-68
2021/05/14 02:50:00;;;;;;;2.72;2.47;;;;;;;21.64;69.31;98947.48;1718648;82;21612;-68
2021/05/14 02:52:26;;;;;;;3.10;2.85;;;;;;;21.64;69.30;98944.78;1715121;82;21131;-68
2021/05/14 02:54:52;;;;;;;3.25;2.33;;;;;;;21.62;69.24;98949.63;1718608;82;21121;-68
2021/05/14 02:57:21;;;;;;;2.50;2.30;;;;;;;21.61;69.25;98945.28;1723172;82;21576;-68
2021/05/14 02:59:47;;;;;;;2.50;2.30;;;;;;;21.59;69.35;98941.52;1717452;81;21087;-68
2021/05/14 03:02:13;;;;;;;3.15;2.85;;;;;;;21.59;69.41;98950.13;1725815;81;21299;-68
2021/05/14 03:04:40;;;;;;;2.85;2.60;;;;;;;21.57;69.34;98940.13;1741840;81;21088;-67
2021/05/14 03:07:07;;;;;;;2.60;2.40;;;;;;;21.57;69.33;98945.53;1728049;81;21638;-68
2021/05/14 03:09:33;;;;;;;3.37;3.08;;;;;;;21.55;69.40;98940.38;1737492;81;21051;-69
2021/05/14 03:12:00;;;;;;;2.77;2.58;;;;;;;21.53;69.40;98939.83;1725971;81;21079;-68
2021/05/14 03:14:26;;;;;;;2.80;2.60;;;;;;;21.53;69.48;98941.17;1731268;81;22420;-68
2021/05/14 03:16:54;;;;;;;3.00;2.70;;;;;;;21.52;69.52;98941.45;1732906;81;21085;-68
2021/05/14 03:19:21;;;;;;;3.00;2.70;;;;;;;21.52;69.56;98937.41;1741740;81;21113;-69
2021/05/14 03:21:47;;;;;;;2.60;2.40;;;;;;;21.51;69.61;98941.17;1715913;82;21059;-68
2021/05/14 03:24:14;;;;;;;3.35;2.55;;;;;;;21.51;69.67;98934.41;1725937;82;21113;-68
2021/05/14 03:26:40;;;;;;;2.85;2.65;;;;;;;21.52;69.71;98944.16;1721660;82;21110;-68
2021/05/14 03:29:06;;;;;;;3.00;2.80;;;;;;;21.52;69.72;98938.76;1708981;82;21614;-68
2021/05/14 03:31:33;;;;;;;2.50;2.30;;;;;;;21.50;69.76;98939.02;1709009;82;21071;-68
2021/05/14 03:33:59;;;;;;;2.65;2.45;;;;;;;21.59;69.61;98941.52;1709886;82;21391;-69
2021/05/14 03:36:26;;;;;;;2.92;2.62;;;;;;;21.72;69.26;98948.34;1707914;82;21098;-68
2021/05/14 03:38:52;;;;;;;2.77;2.58;;;;;;;21.71;69.19;98949.42;1728268;82;21627;-68
2021/05/14 03:42:06;;;;;;;2.47;2.27;;;;;;;21.72;69.19;98956.45;1724948;82;21060;-68
2021/05/14 03:43:47;;;;;;;3.20;2.95;;;;;;;21.72;69.19;98946.98;1702973;82;21606;-67
2021/05/14 03:46:13;;;;;;;3.27;2.98;;;;;;;21.72;69.26;98951.03;1720108;82;21088;-68
2021/05/14 03:48:40;;;;;;;2.90;2.70;;;;;;;21.72;69.27;98948.34;1715232;82;21134;-69
2021/05/14 03:51:06;;;;;;;2.65;2.45;;;;;;;21.72;69.33;98946.98;1714398;82;21040;-68
2021/05/14 03:53:32;;;;;;;3.15;2.95;;;;;;;21.72;69.32;98946.98;1716525;82;21607;-69
2021/05/14 03:55:59;;;;;;;2.75;2.55;;;;;;;21.73;69.42;98947.79;1714600;82;21057;-69
2021/05/14 03:58:25;;;;;;;2.70;2.50;;;;;;;21.73;69.46;98952.68;1707887;82;21037;-69
2021/05/14 04:00:52;;;;;;;2.75;2.55;;;;;;;21.73;69.46;98951.33;1707554;82;21120;-68
2021/05/14 04:03:20;;;;;;;2.87;2.58;;;;;;;21.71;69.51;98954.83;1715020;83;21663;-68
2021/05/14 04:05:46;;;;;;;2.70;2.50;;;;;;;21.72;69.59;98947.53;1708816;82;21613;-68
2021/05/14 04:08:13;;;;;;;2.77;2.58;;;;;;;21.71;69.64;98949.94;1713089;82;21020;-68
2021/05/14 04:16:03;;;;;;;2.70;2.50;;;;;;;21.71;69.80;98939.97;1706402;82;21102;-68
2021/05/14 04:18:29;;;;;;;2.62;2.42;;;;;;;21.71;69.88;98948.08;1707554;82;21369;-70
2021/05/14 04:20:56;;;;;;;2.90;2.70;;;;;;;21.73;69.99;98950.49;1700859;82;21123;-67
2021/05/14 04:23:23;;;;;;;2.67;2.47;;;;;;;21.73;69.99;98946.44;1694103;82;21052;-68
2021/05/14 04:25:50;;;;;;;3.67;2.98;;;;;;;21.75;70.15;98946.98;1730902;82;21089;-68
2021/05/14 04:28:16;;;;;;;3.08;2.83;;;;;;;21.77;70.14;98944.87;1712348;82;21101;-68
2021/05/14 04:30:43;;;;;;;4.33;3.15;;;;;;;21.79;70.16;98948.93;1708852;82;21048;-66
2021/05/14 04:33:09;;;;;;;3.25;2.95;;;;;;;21.80;70.18;98941.08;1704031;82;21080;-68
2021/05/14 04:35:36;;;;;;;2.58;2.37;;;;;;;21.84;70.18;98940.02;1706207;82;21096;-68
2021/05/14 04:38:02;;;;;;;2.72;2.50;;;;;;;21.92;70.06;98932.79;1708267;82;21668;-68
2021/05/14 04:40:28;;;;;;;2.37;2.20;;;;;;;22.04;69.59;98932.58;1715649;82;21139;-67
2021/05/14 04:43:03;;;;;;;2.98;2.77;;;;;;;22.08;69.49;98923.38;1717909;82;21048;-67
2021/05/14 04:45:30;;;;;;;2.87;2.67;;;;;;;22.09;69.48;98927.72;1718441;82;21108;-68
2021/05/14 04:47:58;;;;;;;2.75;2.55;;;;;;;22.10;69.47;98930.16;1719232;82;21088;-68
2021/05/14 04:50:24;;;;;;;2.45;2.25;;;;;;;22.12;69.44;98932.61;1701830;82;21717;-67
2021/05/14 04:53:06;;;;;;;2.85;2.60;;;;;;;22.14;69.41;98933.97;1703321;82;21067;-67
2021/05/14 04:55:33;;;;;;;2.72;2.52;;;;;;;22.16;69.39;98930.46;1713086;82;21128;-69
2021/05/14 04:57:59;;;;;;;2.77;2.52;;;;;;;22.18;69.35;98931.00;1704212;82;21092;-67
2021/05/14 05:00:26;;;;;;;2.72;2.50;;;;;;;22.21;69.35;98922.09;1717800;81;21185;-69
2021/05/14 05:02:53;;;;;;;2.70;2.50;;;;;;;22.23;69.31;98928.05;1730228;82;22308;-68
2021/05/14 05:05:19;;;;;;;3.10;2.80;;;;;;;22.26;69.30;98922.95;1727124;82;21050;-67
2021/05/14 05:07:45;;;;;;;2.77;2.58;;;;;;;22.29;69.23;98925.14;1723704;82;21130;-67
2021/05/14 05:10:13;;;;;;;3.00;2.72;;;;;;;22.33;69.21;98928.13;1730318;82;21619;-67
2021/05/14 05:12:39;;;;;;;2.85;2.58;;;;;;;22.36;69.19;98919.47;1719640;82;21107;-68
2021/05/14 05:15:08;;;;;;;3.00;2.70;;;;;;;22.41;69.14;98918.66;1717885;82;21058;-69
2021/05/14 05:17:34;;;;;;;3.05;2.75;;;;;;;22.42;69.06;98921.11;1718879;82;21083;-70
2021/05/14 05:20:01;;;;;;;2.67;2.47;;;;;;;22.46;69.03;98919.49;1730213;82;21626;-68
2021/05/14 05:22:28;;;;;;;2.77;2.58;;;;;;;22.48;69.00;98913.27;1718588;82;21088;-68
2021/05/14 05:24:54;;;;;;;3.00;2.37;;;;;;;22.51;68.92;98903.28;1718672;82;21087;-67
2021/05/14 05:27:21;;;;;;;3.30;3.00;;;;;;;22.55;68.89;98900.31;1720500;82;21165;-67
2021/05/14 05:29:47;;;;;;;2.62;2.42;;;;;;;22.58;68.79;98899.78;1737207;82;21595;-69
2021/05/14 05:32:13;;;;;;;2.37;2.17;;;;;;;22.62;68.72;98890.59;1721772;82;21218;-68
2021/05/14 05:34:40;;;;;;;2.87;2.58;;;;;;;22.65;68.67;98899.52;1725384;82;21111;-68
2021/05/14 05:37:06;;;;;;;2.83;2.62;;;;;;;22.69;68.55;98899.80;1727799;82;21054;-69
2021/05/14 05:39:33;;;;;;;2.92;2.60;;;;;;;22.70;68.42;98894.67;1728782;82;21119;-68
2021/05/14 05:41:59;;;;;;;2.75;2.55;;;;;;;22.73;67.88;98894.92;1724610;82;21073;-70
2021/05/14 05:44:26;;;;;;;2.95;2.75;;;;;;;22.75;67.70;98898.20;1735601;82;21099;-70
2021/05/14 05:46:53;;;;;;;3.37;2.70;;;;;;;22.76;67.66;98901.16;1718311;82;21103;-70
2021/05/14 05:49:21;;;;;;;3.00;2.62;;;;;;;22.78;67.61;98898.19;1718135;82;21109;-70
2021/05/14 05:51:48;;;;;;;3.00;2.80;;;;;;;22.78;67.56;98894.13;1726463;82;21095;-69
2021/05/14 05:54:15;;;;;;;3.08;2.87;;;;;;;22.80;67.50;98892.52;1722962;82;21559;-70
2021/05/14 05:56:45;;;;;;;2.40;2.20;;;;;;;22.82;67.51;98897.12;1725587;82;21121;-69
2021/05/14 05:59:16;;;;;;;3.10;2.80;;;;;;;22.83;67.44;98886.55;1719066;82;21701;-70
2021/05/14 06:01:41;;;;;;;3.00;2.70;;;;;;;22.82;67.40;98889.80;1714140;81;21086;-70
2021/05/14 06:04:08;;;;;;;3.05;2.83;;;;;;;22.85;67.35;98895.20;1713388;81;21132;-69
2021/05/14 06:06:34;;;;;;;3.55;2.52;;;;;;;22.85;67.31;98891.98;1702171;82;21056;-68
2021/05/14 06:09:02;;;;;;;2.80;2.60;;;;;;;22.87;67.26;98885.75;1728729;82;21643;-69
2021/05/14 06:11:29;;;;;;;3.17;2.87;;;;;;;22.90;67.21;98889.80;1696857;82;21108;-69
2021/05/14 06:13:55;;;;;;;2.92;2.72;;;;;;;22.92;67.16;98887.64;1723217;82;21675;-70
2021/05/14 06:16:22;;;;;;;2.75;2.52;;;;;;;22.93;67.10;98878.45;1713147;82;21348;-70
2021/05/14 06:18:57;;;;;;;3.40;2.90;;;;;;;22.94;67.04;98872.73;1711565;82;21084;-71
2021/05/14 06:21:16;;;;;;;3.00;2.80;;;;;;;22.97;66.98;98875.47;1705837;81;21080;-70
2021/05/14 06:23:43;;;;;;;2.98;2.77;;;;;;;22.99;66.93;98865.72;1703602;82;21096;-69
2021/05/14 06:26:09;;;;;;;2.45;2.25;;;;;;;23.01;66.89;98867.62;1710614;82;21088;-71
2021/05/14 06:28:36;;;;;;;2.95;2.40;;;;;;;23.02;66.85;98878.70;1699060;82;22227;-70
2021/05/14 06:31:03;;;;;;;3.05;2.80;;;;;;;23.04;66.84;98873.31;1711383;82;21069;-71
2021/05/14 06:33:29;;;;;;;2.70;2.50;;;;;;;23.07;66.87;98879.55;1703975;82;21064;-70
2021/05/14 06:36:00;;;;;;;2.47;2.27;;;;;;;23.10;66.81;98872.77;1718854;81;21555;-70
2021/05/14 06:38:24;;;;;;;3.00;2.70;;;;;;;23.13;66.80;98877.66;1713121;82;21582;-71
2021/05/14 06:40:50;;;;;;;2.70;2.40;;;;;;;23.16;66.74;98868.45;1715541;81;21144;-68
2021/05/14 06:43:17;;;;;;;3.20;2.80;;;;;;;23.20;66.73;98870.59;1714657;82;21077;-69
2021/05/14 06:45:43;;;;;;;2.72;2.52;;;;;;;23.22;66.67;98869.26;1720122;81;21080;-71
2021/05/14 06:48:13;;;;;;;2.67;2.47;;;;;;;23.26;66.65;98872.23;1706440;82;21615;-71
2021/05/14 06:50:38;;;;;;;2.98;2.77;;;;;;;23.29;66.64;98871.67;1709042;82;21104;-68
2021/05/14 06:53:05;;;;;;;3.02;2.70;;;;;;;23.32;66.60;98869.23;1698232;82;21162;-68
2021/05/14 06:55:31;;;;;;;4.70;3.80;;;;;;;23.35;66.54;98864.64;1708536;82;21100;-64
2021/05/14 06:57:58;;;;;;;6.78;4.42;;;;;;;23.41;65.47;98864.61;1711614;81;21599;-63
2021/05/14 07:00:24;;;;;;;6.92;4.37;;;;;;;23.43;61.61;98861.91;1711360;82;21108;-65
2021/05/14 07:02:53;;;;;;;5.35;4.25;;;;;;;23.46;59.64;98856.48;1723282;81;21075;-63
2021/05/14 07:05:19;;;;;;;9.95;5.00;;;;;;;23.48;58.54;98865.95;1729245;80;21748;-66
2021/05/14 07:07:45;;;;;;;6.05;4.70;;;;;;;23.51;57.79;98856.48;1729081;82;21076;-64
2021/05/14 07:10:12;;;;;;;6.50;4.58;;;;;;;23.54;57.11;98855.91;1732584;80;21056;-66
2021/05/14 07:12:39;;;;;;;6.30;4.67;;;;;;;23.57;56.56;98845.08;1766144;80;21567;-65
2021/05/14 07:15:09;;;;;;;7.85;4.70;;;;;;;23.60;55.93;98840.44;1737445;82;21075;-64
2021/05/14 07:17:36;;;;;;;8.98;4.60;;;;;;;23.63;55.48;98829.86;1718734;82;21144;-66
2021/05/14 07:20:05;;;;;;;7.83;5.25;;;;;;;23.66;55.32;98827.13;1726327;82;21105;-64
2021/05/14 07:22:31;;;;;;;6.05;4.47;;;;;;;23.68;54.76;98829.86;1721623;80;21036;-67
2021/05/14 07:24:58;;;;;;;7.45;4.90;;;;;;;23.70;54.42;98829.55;1720185;82;21087;-68
2021/05/14 07:27:24;;;;;;;6.72;4.78;;;;;;;23.73;53.91;98831.73;1722396;82;21100;-69
2021/05/14 07:29:51;;;;;;;6.33;4.35;;;;;;;23.74;53.73;98836.88;1724303;82;21051;-67
2021/05/14 07:32:17;;;;;;;6.12;4.33;;;;;;;23.75;53.09;98830.35;1699998;82;21106;-68
2021/05/14 07:34:43;;;;;;;8.03;4.12;;;;;;;23.78;52.34;98834.95;1731520;82;21123;-69
2021/05/14 07:37:10;;;;;;;4.67;4.10;;;;;;;23.78;51.66;98833.11;1721228;82;21103;-67
2021/05/14 07:39:37;;;;;;;5.47;4.47;;;;;;;23.79;51.28;98825.77;1721017;82;21132;-68
2021/05/14 07:42:05;;;;;;;4.83;3.83;;;;;;;23.79;50.90;98833.91;1733112;82;21112;-66
2021/05/14 07:44:32;;;;;;;7.42;4.37;;;;;;;23.78;50.29;98834.95;1724722;80;21124;-66
2021/05/14 07:46:58;;;;;;;6.08;4.40;;;;;;;23.78;50.04;98836.30;1725431;82;21647;-65
2021/05/14 07:49:24;;;;;;;7.40;4.20;;;;;;;23.77;49.77;98827.92;1724667;82;21139;-68
2021/05/14 07:51:51;;;;;;;5.70;4.17;;;;;;;23.77;49.42;98830.08;1723641;82;21044;-64
2021/05/14 07:54:17;;;;;;;4.87;3.67;;;;;;;23.78;49.30;98832.23;1726546;82;21601;-65
2021/05/14 07:56:44;;;;;;;6.55;3.67;;;;;;;23.79;48.81;98828.48;1727579;82;21087;-65
2021/05/14 07:59:11;;;;;;;5.70;4.08;;;;;;;23.78;48.62;98833.11;1723866;82;21099;-63
2021/05/14 08:01:38;;;;;;;5.87;3.35;;;;;;;23.79;48.40;98837.98;1720964;81;21650;-61
2021/05/14 08:04:06;;;;;;;5.37;3.90;;;;;;;23.79;48.04;98836.06;1726082;81;21090;-67
2021/05/14 08:06:33;;;;;;;6.97;3.72;;;;;;;23.80;48.12;98832.28;1732143;81;21193;-66
2021/05/14 08:09:05;;;;;;;5.97;3.67;;;;;;;23.82;48.20;98830.66;1734304;81;21126;-66
2021/05/14 08:11:29;;;;;;;6.35;4.35;;;;;;;23.82;48.56;98842.30;1747441;80;22288;-67
2021/05/14 08:13:56;;;;;;;15.70;8.53;;;;;;;23.82;48.63;98836.08;1741353;81;21063;-69
2021/05/14 08:16:22;;;;;;;10.48;6.45;;;;;;;23.82;48.92;98837.44;1730336;81;21059;-66
2021/05/14 08:18:51;;;;;;;12.63;6.12;;;;;;;23.82;49.07;98830.66;1742575;81;21095;-66
2021/05/14 08:21:19;;;;;;;7.50;5.50;;;;;;;23.83;49.54;98836.33;1737408;81;21133;-68
2021/05/14 08:23:46;;;;;;;7.80;4.75;;;;;;;23.84;49.53;98836.61;1736176;81;21586;-63
2021/05/14 08:26:12;;;;;;;7.67;4.87;;;;;;;23.85;49.88;98832.23;1737057;81;21140;-62
2021/05/14 08:28:39;;;;;;;4.85;4.28;;;;;;;23.86;50.00;98831.72;1726383;81;21076;-61
2021/05/14 08:31:05;;;;;;;8.03;5.00;;;;;;;23.87;49.94;98827.90;1730552;81;21578;-69
2021/05/14 08:33:31;;;;;;;5.47;4.95;;;;;;;23.88;49.61;98833.61;1735001;81;21765;-71
2021/05/14 08:35:58;;;;;;;6.37;4.15;;;;;;;23.88;49.87;98821.41;1728767;80;21044;-73
2021/05/14 08:38:26;;;;;;;6.15;4.42;;;;;;;23.89;49.78;98825.72;1739880;81;21142;-73
2021/05/14 08:40:54;;;;;;;6.58;4.12;;;;;;;23.89;49.58;98822.48;1738330;80;21097;-72
2021/05/14 08:43:22;;;;;;;5.75;4.20;;;;;;;23.90;49.67;98827.36;1736447;80;21087;-72
2021/05/14 08:45:49;;;;;;;5.33;4.40;;;;;;;23.92;49.72;98831.95;1734546;81;21119;-74
2021/05/14 08:48:16;;;;;;;6.67;4.33;;;;;;;23.92;49.46;98832.77;1738761;81;21054;-73
2021/05/14 08:50:43;;;;;;;5.47;4.37;;;;;;;23.92;49.30;98836.83;1737056;81;21156;-74
2021/05/14 08:53:09;;;;;;;5.55;3.92;;;;;;;23.94;49.27;98841.98;1734674;81;21091;-75
2021/05/14 08:55:36;;;;;;;4.70;4.05;;;;;;;23.96;49.24;98837.64;1733569;81;21090;-74
2021/05/14 08:58:03;;;;;;;5.03;4.22;;;;;;;23.97;49.17;98833.30;1738866;81;21690;-74
2021/05/14 09:00:31;;;;;;;6.20;4.42;;;;;;;24.01;49.09;98840.31;1743349;81;21099;-74
2021/05/14 09:02:57;;;;;;;8.63;4.70;;;;;;;24.04;48.72;98851.42;1729062;81;21148;-78
2021/05/14 09:05:33;;;;;;;5.67;4.42;;;;;;;24.05;48.25;98846.28;1725518;81;21071;-73
2021/05/14 09:08:01;;;;;;;6.62;4.92;;;;;;;24.06;48.04;98849.23;1737048;81;21103;-74
2021/05/14 09:10:30;;;;;;;6.53;3.87;;;;;;;24.06;47.55;98846.53;1741783;81;21091;-77
2021/05/14 09:12:57;;;;;;;6.75;5.00;;;;;;;24.03;47.23;98841.67;1734078;81;21387;-76
2021/05/14 09:15:34;;;;;;;5.35;4.85;;;;;;;24.05;47.09;98842.20;1728583;81;21132;-75
2021/05/14 09:18:19;;;;;;;7.35;4.78;;;;;;;24.03;46.95;98840.32;1726872;81;21105;-74
2021/05/14 09:21:00;;;;;;;6.17;4.55;;;;;;;24.03;47.09;98843.03;1736624;81;21630;-77
2021/05/14 09:23:31;;;;;;;7.55;4.83;;;;;;;24.03;46.84;98847.63;1728132;81;21059;-74
2021/05/14 09:26:08;;;;;;;6.08;4.47;;;;;;;24.02;47.04;98845.47;1739461;81;21090;-74
2021/05/14 09:28:50;;;;;;;4.85;4.35;;;;;;;24.04;46.77;98841.92;1730223;81;21790;-79
2021/05/14 09:31:23;;;;;;;6.95;5.12;;;;;;;24.05;46.61;98840.85;1737039;81;21103;-72
2021/05/14 09:33:58;;;;;;;6.12;5.00;;;;;;;24.05;46.46;98850.34;1726181;81;21695;-76
2021/05/14 09:36:34;;;;;;;6.03;4.60;;;;;;;24.06;46.28;98835.67;1732444;81;21079;-74
2021/05/14 09:39:04;;;;;;;5.47;4.75;;;;;;;24.07;46.08;98840.02;1710112;82;21107;-74
2021/05/14 09:41:42;;;;;;;7.05;4.60;;;;;;;24.06;46.34;98834.32;1722609;82;21609;-72
2021/05/14 09:44:14;;;;;;;6.83;4.90;;;;;;;24.07;46.29;98835.16;1717994;82;21080;-72
2021/05/14 09:46:43;;;;;;;7.87;4.72;;;;;;;24.06;46.29;98831.61;1717009;82;21124;-73
2021/05/14 09:49:19;;;;;;;7.12;4.42;;;;;;;24.06;46.20;98831.61;1710038;82;21094;-75
2021/05/14 09:51:59;;;;;;;7.97;4.15;;;;;;;24.05;46.02;98831.36;1709421;82;21047;-80
2021/05/14 09:54:29;;;;;;;4.72;4.03;;;;;;;24.04;45.58;98820.22;1716775;82;21084;-77
2021/05/14 10:00:05;;;;;;;4.97;4.17;;;;;;;23.99;45.58;98816.72;1717112;82;21133;-77
2021/05/14 10:02:37;;;;;;;6.90;4.25;;;;;;;23.96;45.50;98818.10;1715591;82;21560;-76
2021/05/14 10:05:10;;;;;;;4.08;3.67;;;;;;;23.95;45.56;98817.82;1698948;83;21038;-75
2021/05/14 10:07:37;;;;;;;5.12;3.58;;;;;;;23.94;45.37;98814.86;1663635;83;21179;-77
2021/05/14 10:10:08;;;;;;;6.15;3.98;;;;;;;23.92;45.38;98812.42;1712444;82;21075;-74
2021/05/14 10:12:36;;;;;;;5.45;3.92;;;;;;;23.92;45.39;98815.13;1687582;83;21832;-74
2021/05/14 10:17:48;;;;;;;5.67;4.33;;;;;;;23.97;45.33;98806.18;1818898;76;22547;-73
2021/05/14 10:20:19;;;;;;;7.55;4.17;;;;;;;23.87;45.44;98807.01;1780631;78;21010;-76
2021/05/14 10:22:46;;;;;;;5.70;3.50;;;;;;;23.89;45.35;98808.09;1748819;81;21146;-69
2021/05/14 10:25:20;;;;;;;5.53;3.98;;;;;;;23.90;45.80;98813.80;1774817;80;21104;-78
2021/05/14 10:27:44;;;;;;;7.95;4.10;;;;;;;23.93;46.26;98807.27;1747199;79;21082;-78
2021/05/14 10:30:12;;;;;;;4.75;3.80;;;;;;;23.97;46.76;98816.19;1765214;80;21660;-83
2021/05/14 10:32:49;;;;;;;5.80;3.72;;;;;;;24.01;47.10;98804.52;1754346;80;20999;-82
2021/05/14 10:35:30;;;;;;;7.17;4.10;;;;;;;24.04;47.31;98813.44;1746432;79;21101;-79
2021/05/14 10:38:06;;;;;;;4.37;3.55;;;;;;;24.06;47.52;98812.62;1739960;80;21086;-81
2021/05/14 10:40:38;;;;;;;6.78;4.00;;;;;;;24.09;47.72;98824.83;1748640;81;21019;-80
2021/05/14 10:43:18;;;;;;;4.80;4.30;;;;;;;24.12;47.88;98819.63;1757164;80;21074;-80
2021/05/14 10:45:49;;;;;;;6.78;4.08;;;;;;;24.14;48.03;98815.28;1792677;79;21053;-70
2021/05/14 10:48:23;;;;;;;6.60;4.70;;;;;;;24.18;48.38;98825.04;1753270;79;21075;-70
2021/05/14 10:51:00;;;;;;;5.33;4.83;;;;;;;24.20;48.83;98818.23;1771478;79;21113;-71
2021/05/14 10:53:36;;;;;;;5.00;4.50;;;;;;;24.22;49.16;98825.58;1787783;79;21030;-70
2021/05/14 10:56:15;;;;;;;6.53;4.72;;;;;;;24.25;49.42;98830.42;1789256;79;21078;-70
2021/05/14 10:59:03;;;;;;;5.58;4.55;;;;;;;24.27;49.53;98825.53;1796056;79;21140;-74
2021/05/14 11:01:44;;;;;;;8.00;4.95;;;;;;;24.30;49.41;98823.62;1789857;79;22454;-70
2021/05/14 11:04:18;;;;;;;6.67;4.97;;;;;;;24.37;49.21;98835.51;1782649;79;21022;-70
2021/05/14 11:06:49;;;;;;;5.63;5.07;;;;;;;24.41;49.35;98828.42;1785398;79;21042;-77
2021/05/14 11:09:17;;;;;;;8.15;4.28;;;;;;;24.47;49.56;98825.96;1798880;77;21102;-67
2021/05/14 11:12:06;;;;;;;7.08;3.98;;;;;;;24.55;49.56;98827.30;1779094;79;21704;-71
2021/05/14 11:14:47;;;;;;;6.90;4.30;;;;;;;24.63;49.50;98828.05;1782204;79;21538;-74
2021/05/14 11:17:15;;;;;;;6.25;3.98;;;;;;;24.73;49.35;98821.72;1776488;79;21082;-74
2021/05/14 11:19:48;;;;;;;9.95;4.60;;;;;;;24.85;49.12;98815.92;1769700;78;21216;-80
2021/05/14 11:22:18;;;;;;;5.72;4.10;;;;;;;24.98;48.99;98822.05;1775087;79;21134;-77
2021/05/14 11:25:07;;;;;;;6.67;3.87;;;;;;;25.12;49.11;98827.63;1771398;79;21011;-71
2021/05/14 11:27:35;;;;;;;4.60;4.08;;;;;;;25.26;49.32;98821.80;1780446;78;21084;-71
2021/05/14 11:30:09;;;;;;;3.87;3.45;;;;;;;25.41;49.49;98815.41;1774361;79;21661;-73
2021/05/14 11:32:44;;;;;;;4.33;3.85;;;;;;;25.55;49.35;98819.59;1776865;79;21079;-70
2021/05/14 11:35:17;;;;;;;4.20;3.80;;;;;;;25.66;49.07;98810.78;1759282;79;21068;-79
2021/05/14 11:37:57;;;;;;;5.97;3.90;;;;;;;25.77;48.53;98822.33;1767149;79;21015;-68
2021/05/14 11:40:34;;;;;;;4.15;3.75;;;;;;;25.85;48.45;98805.39;1770118;79;21111;-72
2021/05/14 11:43:13;;;;;;;4.45;3.77;;;;;;;25.90;48.21;98802.05;1769343;79;21764;-77
2021/05/14 11:45:41;;;;;;;5.22;3.65;;;;;;;25.94;47.83;98802.84;1775450;79;21618;-70
2021/05/14 11:48:21;;;;;;;3.65;3.30;;;;;;;25.97;47.57;98808.52;1765058;79;21046;-69
2021/05/14 11:50:57;;;;;;;4.15;3.45;;;;;;;25.99;47.19;98796.78;1760001;79;21693;-70